createdAt,value
2023-05-20T00:08:57.150Z,12.2
2023-05-20T00:14:03.805Z,12.2
2023-05-20T00:19:52.764Z,12.1
2023-05-20T00:25:28.901Z,12.1
2023-05-20T00:30:57.443Z,12.1
2023-05-20T00:36:17.090Z,12.1
2023-05-20T00:41:58.030Z,12.1
2023-05-20T00:47:42.878Z,12.1
2023-05-20T00:53:16.508Z,12.1
2023-05-20T00:58:51.192Z,12.1
2023-05-20T01:04:17.659Z,12.2
2023-05-20T01:09:52.441Z,12.1
2023-05-20T01:15:14.860Z,12
2023-05-20T01:20:54.316Z,12
2023-05-20T01:26:31.843Z,11.9
2023-05-20T01:32:19.424Z,11.9
2023-05-20T01:37:29.443Z,11.9
2023-05-20T01:43:08.649Z,11.8
2023-05-20T01:48:40.547Z,11.8
2023-05-20T01:54:15.590Z,11.8
2023-05-20T01:59:55.354Z,11.8
2023-05-20T02:05:36.875Z,11.9
2023-05-20T02:11:01.058Z,11.9
2023-05-20T02:16:42.833Z,11.9
2023-05-20T02:22:07.244Z,11.9
2023-05-20T02:27:27.182Z,11.8
2023-05-20T02:38:53.470Z,11.8
2023-05-20T02:44:07.064Z,11.8
2023-05-20T02:49:45.533Z,11.8
2023-05-20T02:55:34.310Z,11.9
2023-05-20T03:00:56.756Z,11.9
2023-05-20T03:06:23.148Z,11.8
2023-05-20T03:12:04.424Z,11.8
2023-05-20T03:17:28.993Z,11.7
2023-05-20T03:23:01.406Z,11.5
2023-05-20T03:28:48.525Z,11.4
2023-05-20T03:34:13.919Z,11.3
2023-05-20T03:39:44.925Z,11.4
2023-05-20T03:45:24.472Z,11.4
2023-05-20T03:51:09.643Z,11.4
2023-05-20T03:56:40.590Z,11.2
2023-05-20T04:01:49.257Z,11.2
2023-05-20T04:07:26.288Z,11.1
2023-05-20T04:13:07.446Z,11.2
2023-05-20T04:18:49.641Z,11.2
2023-05-20T04:24:13.475Z,11.2
2023-05-20T04:29:38.283Z,11.2
2023-05-20T04:35:14.200Z,11.2
2023-05-20T04:40:57.788Z,11.3
2023-05-20T04:46:25.664Z,11.4
2023-05-20T04:51:53.617Z,11.5
2023-05-20T04:57:42.689Z,11.6
2023-05-20T05:02:57.376Z,11.8
2023-05-20T05:08:38.582Z,11.8
2023-05-20T05:14:18.838Z,11.8
2023-05-20T05:19:55.282Z,11.9
2023-05-20T05:25:11.125Z,12
2023-05-20T05:30:44.261Z,12.1
2023-05-20T05:36:23.404Z,12.2
2023-05-20T05:41:48.935Z,12.2
2023-05-20T05:47:31.951Z,12.2
2023-05-20T05:53:13.527Z,12.2
2023-05-20T05:58:48.132Z,12.1
2023-05-20T06:04:08.517Z,12.1
2023-05-20T06:09:42.998Z,12.2
2023-05-20T06:15:19.244Z,12.3
2023-05-20T06:20:49.530Z,12.4
2023-05-20T06:26:20.944Z,12.4
2023-05-20T06:32:16.697Z,12.5
2023-05-20T06:37:25.514Z,12.5
2023-05-20T06:43:07.118Z,12.6
2023-05-20T06:48:31.535Z,12.6
2023-05-20T06:54:14.195Z,12.6
2023-05-20T06:59:40.443Z,12.8
2023-05-20T07:05:12.021Z,12.8
2023-05-20T07:11:03.864Z,12.7
2023-05-20T07:16:22.937Z,12.9
2023-05-20T07:21:55.518Z,12.8
2023-05-20T07:33:26.395Z,12.8
2023-05-20T07:38:49.936Z,12.8
2023-05-20T07:44:24.855Z,13
2023-05-20T07:55:39.764Z,13.2
2023-05-20T08:01:20.181Z,13.4
2023-05-20T08:06:47.372Z,13.3
2023-05-20T08:12:10.802Z,13.4
2023-05-20T08:17:42.422Z,13.4
2023-05-20T08:23:12.404Z,13.3
2023-05-20T08:29:14.522Z,13.2
2023-05-20T08:34:33.425Z,13.2
2023-05-20T08:39:58.960Z,13.3
2023-05-20T08:45:57.664Z,13.3
2023-05-20T08:51:26.975Z,13.3
2023-05-20T08:56:44.925Z,13.5
2023-05-20T09:02:23.844Z,13.7
2023-05-20T09:08:00.439Z,13.7
2023-05-20T09:13:29.021Z,13.7
2023-05-20T09:19:08.201Z,13.9
2023-05-20T09:24:49.606Z,14.1
2023-05-20T09:30:35.271Z,14.3
2023-05-20T09:36:05.229Z,14.1
2023-05-20T09:47:15.832Z,14.5
2023-05-20T10:03:55.171Z,14.5
2023-05-20T10:09:24.752Z,14.9
2023-05-20T10:15:08.472Z,14.8
2023-05-20T10:20:54.376Z,14.8
2023-05-20T10:26:00.749Z,14.8
2023-05-20T10:31:40.882Z,15
2023-05-20T10:37:33.223Z,15.8
2023-05-20T10:42:47.817Z,15.7
2023-05-20T10:48:30.742Z,15.5
2023-05-20T10:54:00.257Z,15.4
2023-05-20T10:59:54.256Z,15.3
2023-05-20T11:05:25.344Z,15.2
2023-05-20T11:11:08.532Z,15.2
2023-05-20T11:16:35.008Z,15.2
2023-05-20T11:22:00.805Z,15.8
2023-05-20T11:27:38.026Z,16.1
2023-05-20T11:39:00.764Z,15.9
2023-05-20T11:44:36.627Z,16
2023-05-20T11:50:09.856Z,16.3
2023-05-20T11:55:52.088Z,16.4
2023-05-20T12:01:13.881Z,17
2023-05-20T12:06:44.382Z,16.5
2023-05-20T12:12:13.228Z,16.3
2023-05-20T12:17:55.219Z,16.2
2023-05-20T12:23:36.593Z,16.1
2023-05-20T12:29:15.226Z,16
2023-05-20T12:34:54.078Z,16
2023-05-20T12:40:33.748Z,16.1
2023-05-20T12:45:57.844Z,16.1
2023-05-20T12:51:37.584Z,15.8
2023-05-20T12:56:57.666Z,16
2023-05-20T13:02:46.532Z,16.2
2023-05-20T13:08:10.020Z,16.2
2023-05-20T13:13:42.319Z,16.4
2023-05-20T13:19:27.599Z,16.5
2023-05-20T13:24:58.646Z,16.5
2023-05-20T13:30:48.787Z,16.5
2023-05-20T13:36:08.752Z,16.3
2023-05-20T13:42:02.572Z,16.3
2023-05-20T13:47:29.318Z,16.4
2023-05-20T13:58:36.988Z,16.3
2023-05-20T14:04:04.368Z,16.4
2023-05-20T14:09:55.811Z,16.3
2023-05-20T14:15:20.061Z,16.3
2023-05-20T14:26:26.280Z,16.4
2023-05-20T14:32:21.840Z,16.4
2023-05-20T14:37:50.946Z,16.4
2023-05-20T14:43:25.532Z,16.5
2023-05-20T14:48:52.771Z,16.6
2023-05-20T14:54:41.993Z,16.5
2023-05-20T15:00:09.102Z,16.7
2023-05-20T15:05:55.803Z,16.6
2023-05-20T15:11:15.605Z,16.6
2023-05-20T15:17:00.427Z,16.6
2023-05-20T15:22:35.554Z,16.6
2023-05-20T15:33:46.075Z,16.7
2023-05-20T15:39:10.235Z,16.6
2023-05-20T15:45:04.090Z,16.5
2023-05-20T15:50:33.929Z,16.3
2023-05-20T15:55:56.086Z,16.3
2023-05-20T16:01:45.825Z,16.3
2023-05-20T16:07:24.687Z,16.2
2023-05-20T16:12:39.986Z,16.3
2023-05-20T16:18:15.643Z,16.3
2023-05-20T16:24:15.442Z,16.4
2023-05-20T16:29:25.120Z,16.4
2023-05-20T16:35:05.036Z,16.4
2023-05-20T16:40:33.993Z,16.4
2023-05-20T16:46:27.423Z,16.4
2023-05-20T16:51:52.089Z,16.3
2023-05-20T16:57:41.870Z,16.3
2023-05-20T17:03:09.024Z,16.3
2023-05-20T17:14:19.536Z,16.2
2023-05-20T17:20:01.210Z,16.2
2023-05-20T17:25:27.364Z,16.1
2023-05-20T17:31:11.039Z,16.1
2023-05-20T17:36:23.411Z,16
2023-05-20T17:42:21.860Z,15.9
2023-05-20T17:47:41.348Z,15.8
2023-05-20T17:53:20.317Z,15.8
2023-05-20T17:59:01.533Z,15.7
2023-05-20T18:04:32.286Z,15.7
2023-05-20T18:09:55.194Z,15.7
2023-05-20T18:15:45.673Z,15.6
2023-05-20T18:20:55.587Z,15.6
2023-05-20T18:26:49.086Z,15.5
2023-05-20T18:31:59.853Z,15.5
2023-05-20T18:37:48.374Z,15.4
2023-05-20T18:43:26.650Z,15.3
2023-05-20T18:48:47.011Z,15.3
2023-05-20T18:54:32.693Z,15.3
2023-05-20T19:00:08.817Z,15.2
2023-05-20T19:05:34.924Z,15.1
2023-05-20T19:11:03.590Z,14.8
2023-05-20T19:16:31.767Z,14.8
2023-05-20T19:22:04.995Z,14.8
2023-05-20T19:27:55.975Z,14.1
2023-05-20T19:33:20.705Z,13.8
2023-05-20T19:39:04.917Z,13.4
2023-05-20T19:44:21.217Z,13.6
2023-05-20T19:50:19.497Z,14
2023-05-20T19:55:24.533Z,14.3
2023-05-20T20:01:23.045Z,14.3
2023-05-20T20:06:57.480Z,14.3
2023-05-20T20:12:25.845Z,14.2
2023-05-20T20:17:49.501Z,14
2023-05-20T20:28:52.816Z,13.3
2023-05-20T20:34:38.789Z,13.5
2023-05-20T20:40:01.852Z,13.8
2023-05-20T20:45:47.496Z,14
2023-05-20T20:51:07.311Z,14.1
2023-05-20T20:56:56.739Z,14
2023-05-20T21:02:35.681Z,14.1
2023-05-20T21:18:57.674Z,13.8
2023-05-20T21:24:41.840Z,13.6
2023-05-20T21:30:22.720Z,13.5
2023-05-20T21:35:38.330Z,13.5
2023-05-20T21:41:17.598Z,13.5
2023-05-20T21:46:46.519Z,13.6
2023-05-20T21:52:32.734Z,13.7
2023-05-20T21:57:57.598Z,13.6
2023-05-20T22:08:55.319Z,14
2023-05-20T22:14:26.587Z,14
2023-05-20T22:20:14.184Z,13.8
2023-05-20T22:25:34.547Z,13.6
2023-05-20T22:31:05.753Z,13.6
2023-05-20T22:36:46.695Z,13.6
2023-05-20T22:42:14.211Z,13.6
2023-05-20T22:47:49.480Z,13.4
2023-05-20T22:58:59.051Z,13.3
2023-05-20T23:04:44.444Z,13.2
2023-05-20T23:10:22.637Z,13.1
2023-05-20T23:15:34.622Z,13
2023-05-20T23:21:26.416Z,12.9
2023-05-20T23:27:51.193Z,12.9
2023-05-20T23:32:34.283Z,12.8
2023-05-20T23:37:59.342Z,12.7
2023-05-20T23:43:41.866Z,12.7
2023-05-20T23:49:11.796Z,12.7
2023-05-20T23:54:31.363Z,12.7
